Decoded Metar for KFCS (FORT CARSON in CO, USA) (IATA:FCS) | Meteo·Mobile Aviation Weather
aviador You're here:

KFCS Decoded Metar

FORT CARSON in CO, USA
Report Time2018-12-17 13:58:00
UTC Time2018-12-17 14:14:51
Flight Rules vfr VFR
Wind340° at 09 kt
W.Decomp.*RWY 31: 8.6 kt HW 2.8 kt RCW
RWY 04: 2.8 kt HW 8.6 kt LCW
W.Rank340° ranks 2
Current wind is above 340° avg. (8.8)
Visibility9999 m
Phenomena:N/A
Clouds:N/A
Expected CloudBase > 2,800 ft AGL from Temp-Dew spread
CeilingNone
Temp-4°C (ISA -7)
Dew Point-11°C (59% RH)
AAT-10.4°C
QNH1020 hPa
Density Alt4,790 ft
Elevation5,869 ft
Report Wrong Elevation
Raw Report
KFCS 171358Z AUTO 34009KT 10SM CLR M04/M11 A3012 RMK AO2 SLP248
T10441110 $=

Extra information for KFCS:More info

Metar Taf Metar & Taf Last 4 Metars F.Rules Stats Wind Profile Meteogram Temp Stats Airport Information Weather charts Add Link Nearby VenuesMetar ALERT Operation Metar Decoded Social comments

AIRNAV info for KFCS